Terminal Aerodrome Forecast
Issued by NWS

Home | Current Version | Previous Version | Text Only | Print | Product List | Glossary On
Versions: 1 2 3 4 5 6 7 8 9 10 11 12 13 14 15 16
712
FTUS43 KDVN 301409 AAA
TAFBRL
TAF AMD
KBRL 301409Z 3014/0112 01009KT P6SM OVC035
     FM301600 02010KT P6SM OVC015
     FM301900 01014KT P6SM BKN025
     FM010100 36008KT P6SM OVC015=

USA.gov is the U.S. government's official web portal to all federal, state and local government web resources and services.